sensor_id;sensor_type;location;lat;lon;timestamp;P1;durP1;ratioP1;P2;durP2;ratioP2
12871;SDS011;6504;53.766;9.626;2022-09-09T00:01:23;23.50;;;21.30;;
12871;SDS011;6504;53.766;9.626;2022-09-09T00:04:01;23.30;;;21.10;;
12871;SDS011;6504;53.766;9.626;2022-09-09T00:06:42;25.13;;;22.73;;
12871;SDS011;6504;53.766;9.626;2022-09-09T00:09:13;24.37;;;22.07;;
12871;SDS011;6504;53.766;9.626;2022-09-09T00:11:46;24.40;;;22.03;;
12871;SDS011;6504;53.766;9.626;2022-09-09T00:14:21;23.27;;;21.07;;
12871;SDS011;6504;53.766;9.626;2022-09-09T00:16:57;23.83;;;21.63;;
12871;SDS011;6504;53.766;9.626;2022-09-09T00:19:36;23.03;;;20.93;;
12871;SDS011;6504;53.766;9.626;2022-09-09T00:22:13;23.20;;;21.10;;
12871;SDS011;6504;53.766;9.626;2022-09-09T00:24:46;23.43;;;21.33;;
12871;SDS011;6504;53.766;9.626;2022-09-09T00:27:25;23.07;;;21.00;;
12871;SDS011;6504;53.766;9.626;2022-09-09T00:29:58;21.13;;;19.23;;
12871;SDS011;6504;53.766;9.626;2022-09-09T00:32:32;21.13;;;19.23;;
12871;SDS011;6504;53.766;9.626;2022-09-09T00:35:03;21.53;;;19.33;;
12871;SDS011;6504;53.766;9.626;2022-09-09T00:37:42;21.23;;;19.37;;
12871;SDS011;6504;53.766;9.626;2022-09-09T00:40:17;19.93;;;18.17;;
12871;SDS011;6504;53.766;9.626;2022-09-09T00:42:54;19.17;;;17.47;;
12871;SDS011;6504;53.766;9.626;2022-09-09T00:45:50;19.87;;;18.10;;
12871;SDS011;6504;53.766;9.626;2022-09-09T00:48:34;19.97;;;18.13;;
12871;SDS011;6504;53.766;9.626;2022-09-09T00:51:14;17.93;;;16.30;;
12871;SDS011;6504;53.766;9.626;2022-09-09T00:54:07;19.33;;;17.70;;
12871;SDS011;6504;53.766;9.626;2022-09-09T00:56:50;19.17;;;17.37;;
12871;SDS011;6504;53.766;9.626;2022-09-09T00:59:34;19.67;;;17.87;;
12871;SDS011;6504;53.766;9.626;2022-09-09T01:02:13;18.53;;;16.93;;
12871;SDS011;6504;53.766;9.626;2022-09-09T01:04:56;18.90;;;17.20;;
12871;SDS011;6504;53.766;9.626;2022-09-09T01:07:32;18.13;;;16.53;;
12871;SDS011;6504;53.766;9.626;2022-09-09T01:10:00;17.37;;;15.87;;
12871;SDS011;6504;53.766;9.626;2022-09-09T01:12:44;20.27;;;18.57;;
12871;SDS011;6504;53.766;9.626;2022-09-09T01:15:24;19.80;;;18.10;;
12871;SDS011;6504;53.766;9.626;2022-09-09T01:17:59;20.97;;;19.17;;
12871;SDS011;6504;53.766;9.626;2022-09-09T01:20:32;20.40;;;18.60;;
12871;SDS011;6504;53.766;9.626;2022-09-09T01:23:16;18.77;;;17.17;;
12871;SDS011;6504;53.766;9.626;2022-09-09T01:26:08;19.83;;;18.03;;
12871;SDS011;6504;53.766;9.626;2022-09-09T01:28:42;18.73;;;17.13;;
12871;SDS011;6504;53.766;9.626;2022-09-09T01:31:18;20.17;;;18.37;;
12871;SDS011;6504;53.766;9.626;2022-09-09T01:33:49;20.03;;;18.13;;
12871;SDS011;6504;53.766;9.626;2022-09-09T01:36:21;20.20;;;18.40;;
12871;SDS011;6504;53.766;9.626;2022-09-09T01:38:56;21.20;;;19.23;;
12871;SDS011;6504;53.766;9.626;2022-09-09T01:41:25;19.17;;;17.37;;
12871;SDS011;6504;53.766;9.626;2022-09-09T01:43:54;21.50;;;19.60;;
12871;SDS011;6504;53.766;9.626;2022-09-09T01:46:24;21.47;;;19.53;;
12871;SDS011;6504;53.766;9.626;2022-09-09T01:48:52;20.17;;;18.27;;
12871;SDS011;6504;53.766;9.626;2022-09-09T01:51:22;20.47;;;18.67;;
12871;SDS011;6504;53.766;9.626;2022-09-09T01:53:53;20.93;;;19.03;;
12871;SDS011;6504;53.766;9.626;2022-09-09T01:56:26;19.70;;;18.00;;
12871;SDS011;6504;53.766;9.626;2022-09-09T01:59:18;22.87;;;20.73;;
12871;SDS011;6504;53.766;9.626;2022-09-09T02:02:00;22.07;;;19.97;;
12871;SDS011;6504;53.766;9.626;2022-09-09T02:04:38;20.57;;;18.67;;
12871;SDS011;6504;53.766;9.626;2022-09-09T02:07:14;21.40;;;19.40;;
12871;SDS011;6504;53.766;9.626;2022-09-09T02:09:57;21.17;;;19.17;;
12871;SDS011;6504;53.766;9.626;2022-09-09T02:12:30;21.50;;;19.60;;
12871;SDS011;6504;53.766;9.626;2022-09-09T02:15:00;20.60;;;18.70;;
12871;SDS011;6504;53.766;9.626;2022-09-09T02:17:33;22.73;;;20.67;;
12871;SDS011;6504;53.766;9.626;2022-09-09T02:20:06;22.90;;;20.80;;
12871;SDS011;6504;53.766;9.626;2022-09-09T02:22:37;21.97;;;19.87;;
12871;SDS011;6504;53.766;9.626;2022-09-09T02:25:12;21.47;;;19.37;;
12871;SDS011;6504;53.766;9.626;2022-09-09T02:27:47;22.77;;;20.63;;
12871;SDS011;6504;53.766;9.626;2022-09-09T02:30:16;24.13;;;21.73;;
12871;SDS011;6504;53.766;9.626;2022-09-09T02:32:46;21.23;;;19.23;;
12871;SDS011;6504;53.766;9.626;2022-09-09T02:35:23;22.07;;;19.90;;
12871;SDS011;6504;53.766;9.626;2022-09-09T02:37:53;22.23;;;20.03;;
12871;SDS011;6504;53.766;9.626;2022-09-09T02:40:27;22.00;;;20.00;;
12871;SDS011;6504;53.766;9.626;2022-09-09T02:42:56;21.70;;;19.70;;
12871;SDS011;6504;53.766;9.626;2022-09-09T02:45:31;22.60;;;20.50;;
12871;SDS011;6504;53.766;9.626;2022-09-09T02:48:09;24.20;;;21.80;;
12871;SDS011;6504;53.766;9.626;2022-09-09T02:50:44;20.67;;;18.80;;
12871;SDS011;6504;53.766;9.626;2022-09-09T02:53:22;21.03;;;19.00;;
12871;SDS011;6504;53.766;9.626;2022-09-09T02:55:54;20.57;;;18.57;;
12871;SDS011;6504;53.766;9.626;2022-09-09T02:58:27;21.13;;;19.13;;
12871;SDS011;6504;53.766;9.626;2022-09-09T03:00:55;21.83;;;19.73;;
12871;SDS011;6504;53.766;9.626;2022-09-09T03:03:24;19.77;;;17.97;;
12871;SDS011;6504;53.766;9.626;2022-09-09T03:05:53;20.03;;;18.13;;
12871;SDS011;6504;53.766;9.626;2022-09-09T03:08:21;19.83;;;17.83;;
12871;SDS011;6504;53.766;9.626;2022-09-09T03:10:49;20.07;;;18.27;;
12871;SDS011;6504;53.766;9.626;2022-09-09T03:13:20;21.03;;;19.03;;
12871;SDS011;6504;53.766;9.626;2022-09-09T03:15:49;21.97;;;19.97;;
12871;SDS011;6504;53.766;9.626;2022-09-09T03:18:18;20.93;;;18.87;;
12871;SDS011;6504;53.766;9.626;2022-09-09T03:20:46;21.03;;;19.03;;
12871;SDS011;6504;53.766;9.626;2022-09-09T03:23:16;19.83;;;17.93;;
12871;SDS011;6504;53.766;9.626;2022-09-09T03:25:48;21.60;;;19.70;;
12871;SDS011;6504;53.766;9.626;2022-09-09T03:28:19;21.40;;;19.30;;
12871;SDS011;6504;53.766;9.626;2022-09-09T03:30:47;21.50;;;19.43;;
12871;SDS011;6504;53.766;9.626;2022-09-09T03:33:16;21.73;;;19.73;;
12871;SDS011;6504;53.766;9.626;2022-09-09T03:35:45;20.23;;;18.43;;
12871;SDS011;6504;53.766;9.626;2022-09-09T03:38:14;20.77;;;18.87;;
12871;SDS011;6504;53.766;9.626;2022-09-09T03:40:50;20.23;;;18.40;;
12871;SDS011;6504;53.766;9.626;2022-09-09T03:43:21;19.27;;;17.47;;
12871;SDS011;6504;53.766;9.626;2022-09-09T03:45:49;20.27;;;18.37;;
12871;SDS011;6504;53.766;9.626;2022-09-09T03:48:19;19.27;;;17.37;;
12871;SDS011;6504;53.766;9.626;2022-09-09T03:50:51;19.47;;;17.57;;
12871;SDS011;6504;53.766;9.626;2022-09-09T03:53:20;19.43;;;17.63;;
12871;SDS011;6504;53.766;9.626;2022-09-09T03:55:54;19.97;;;18.03;;
12871;SDS011;6504;53.766;9.626;2022-09-09T03:58:26;19.07;;;17.10;;
12871;SDS011;6504;53.766;9.626;2022-09-09T04:00:55;17.67;;;15.93;;
12871;SDS011;6504;53.766;9.626;2022-09-09T04:03:25;19.70;;;17.90;;
12871;SDS011;6504;53.766;9.626;2022-09-09T04:05:54;18.83;;;16.93;;
12871;SDS011;6504;53.766;9.626;2022-09-09T04:08:26;16.93;;;15.33;;
12871;SDS011;6504;53.766;9.626;2022-09-09T04:10:54;15.33;;;13.93;;
12871;SDS011;6504;53.766;9.626;2022-09-09T04:13:24;16.47;;;14.97;;
12871;SDS011;6504;53.766;9.626;2022-09-09T04:15:53;15.07;;;13.70;;
12871;SDS011;6504;53.766;9.626;2022-09-09T04:18:22;17.47;;;15.87;;
12871;SDS011;6504;53.766;9.626;2022-09-09T04:20:55;15.93;;;14.53;;
12871;SDS011;6504;53.766;9.626;2022-09-09T04:23:24;17.67;;;15.87;;
12871;SDS011;6504;53.766;9.626;2022-09-09T04:25:58;17.87;;;16.07;;
12871;SDS011;6504;53.766;9.626;2022-09-09T04:28:27;18.33;;;16.63;;
12871;SDS011;6504;53.766;9.626;2022-09-09T04:31:03;18.97;;;17.27;;
12871;SDS011;6504;53.766;9.626;2022-09-09T04:33:38;18.93;;;17.23;;
12871;SDS011;6504;53.766;9.626;2022-09-09T04:36:07;17.57;;;16.00;;
12871;SDS011;6504;53.766;9.626;2022-09-09T04:38:35;17.30;;;15.80;;
12871;SDS011;6504;53.766;9.626;2022-09-09T04:41:04;17.53;;;15.93;;
12871;SDS011;6504;53.766;9.626;2022-09-09T04:43:37;17.77;;;16.00;;
12871;SDS011;6504;53.766;9.626;2022-09-09T04:46:05;16.73;;;15.23;;
12871;SDS011;6504;53.766;9.626;2022-09-09T04:48:33;17.47;;;15.87;;
12871;SDS011;6504;53.766;9.626;2022-09-09T04:51:04;17.13;;;15.67;;
12871;SDS011;6504;53.766;9.626;2022-09-09T04:53:33;17.10;;;15.50;;
12871;SDS011;6504;53.766;9.626;2022-09-09T04:56:05;15.67;;;14.23;;
12871;SDS011;6504;53.766;9.626;2022-09-09T04:58:36;16.83;;;15.13;;
12871;SDS011;6504;53.766;9.626;2022-09-09T05:01:08;17.10;;;15.40;;
12871;SDS011;6504;53.766;9.626;2022-09-09T05:03:38;16.50;;;14.90;;
12871;SDS011;6504;53.766;9.626;2022-09-09T05:06:10;16.47;;;15.07;;
12871;SDS011;6504;53.766;9.626;2022-09-09T05:08:40;16.80;;;15.20;;
12871;SDS011;6504;53.766;9.626;2022-09-09T05:11:13;16.90;;;15.30;;
12871;SDS011;6504;53.766;9.626;2022-09-09T05:13:43;16.27;;;14.77;;
12871;SDS011;6504;53.766;9.626;2022-09-09T05:16:15;16.83;;;15.33;;
12871;SDS011;6504;53.766;9.626;2022-09-09T05:18:43;18.23;;;16.53;;
12871;SDS011;6504;53.766;9.626;2022-09-09T05:21:14;16.23;;;14.73;;
12871;SDS011;6504;53.766;9.626;2022-09-09T05:23:48;15.93;;;14.40;;
12871;SDS011;6504;53.766;9.626;2022-09-09T05:26:18;15.97;;;14.37;;
12871;SDS011;6504;53.766;9.626;2022-09-09T05:28:53;13.87;;;12.67;;
12871;SDS011;6504;53.766;9.626;2022-09-09T05:31:21;15.83;;;14.43;;
12871;SDS011;6504;53.766;9.626;2022-09-09T05:33:52;15.07;;;13.67;;
12871;SDS011;6504;53.766;9.626;2022-09-09T05:36:24;15.90;;;14.40;;
12871;SDS011;6504;53.766;9.626;2022-09-09T05:38:56;15.63;;;14.17;;
12871;SDS011;6504;53.766;9.626;2022-09-09T05:41:24;15.10;;;13.60;;
12871;SDS011;6504;53.766;9.626;2022-09-09T05:43:52;14.97;;;13.67;;
12871;SDS011;6504;53.766;9.626;2022-09-09T05:46:20;14.90;;;13.50;;
12871;SDS011;6504;53.766;9.626;2022-09-09T05:48:50;13.90;;;12.70;;
12871;SDS011;6504;53.766;9.626;2022-09-09T05:51:20;15.13;;;13.73;;
12871;SDS011;6504;53.766;9.626;2022-09-09T05:53:52;14.43;;;13.03;;
12871;SDS011;6504;53.766;9.626;2022-09-09T05:56:24;13.90;;;12.60;;
12871;SDS011;6504;53.766;9.626;2022-09-09T05:58:53;12.83;;;11.70;;
12871;SDS011;6504;53.766;9.626;2022-09-09T06:01:23;12.90;;;11.60;;
12871;SDS011;6504;53.766;9.626;2022-09-09T06:03:56;15.03;;;13.70;;
12871;SDS011;6504;53.766;9.626;2022-09-09T06:06:26;12.80;;;11.67;;
12871;SDS011;6504;53.766;9.626;2022-09-09T06:08:57;13.73;;;12.33;;
12871;SDS011;6504;53.766;9.626;2022-09-09T06:11:27;13.70;;;12.40;;
12871;SDS011;6504;53.766;9.626;2022-09-09T06:13:57;13.47;;;12.20;;
12871;SDS011;6504;53.766;9.626;2022-09-09T06:16:29;12.57;;;11.50;;
12871;SDS011;6504;53.766;9.626;2022-09-09T06:18:59;12.83;;;11.53;;
12871;SDS011;6504;53.766;9.626;2022-09-09T06:21:33;13.20;;;12.00;;
12871;SDS011;6504;53.766;9.626;2022-09-09T06:24:03;12.63;;;11.33;;
12871;SDS011;6504;53.766;9.626;2022-09-09T06:26:32;11.57;;;10.37;;
12871;SDS011;6504;53.766;9.626;2022-09-09T06:29:04;11.87;;;10.67;;
12871;SDS011;6504;53.766;9.626;2022-09-09T06:31:33;11.00;;;9.90;;
12871;SDS011;6504;53.766;9.626;2022-09-09T06:34:07;10.20;;;9.27;;
12871;SDS011;6504;53.766;9.626;2022-09-09T06:36:37;10.57;;;9.53;;
12871;SDS011;6504;53.766;9.626;2022-09-09T06:39:06;11.23;;;10.03;;
12871;SDS011;6504;53.766;9.626;2022-09-09T06:41:40;10.27;;;9.37;;
12871;SDS011;6504;53.766;9.626;2022-09-09T06:44:09;11.40;;;10.30;;
12871;SDS011;6504;53.766;9.626;2022-09-09T06:46:38;10.20;;;9.27;;
12871;SDS011;6504;53.766;9.626;2022-09-09T06:49:07;11.40;;;9.80;;
12871;SDS011;6504;53.766;9.626;2022-09-09T06:51:39;11.20;;;10.20;;
12871;SDS011;6504;53.766;9.626;2022-09-09T06:54:09;10.10;;;9.20;;
12871;SDS011;6504;53.766;9.626;2022-09-09T06:56:38;10.43;;;9.53;;
12871;SDS011;6504;53.766;9.626;2022-09-09T06:59:08;9.53;;;8.67;;
12871;SDS011;6504;53.766;9.626;2022-09-09T07:01:39;9.67;;;8.83;;
12871;SDS011;6504;53.766;9.626;2022-09-09T07:04:08;8.83;;;7.97;;
12871;SDS011;6504;53.766;9.626;2022-09-09T07:06:39;9.70;;;8.80;;
12871;SDS011;6504;53.766;9.626;2022-09-09T07:09:15;9.20;;;8.23;;
12871;SDS011;6504;53.766;9.626;2022-09-09T07:11:44;9.90;;;8.90;;
12871;SDS011;6504;53.766;9.626;2022-09-09T07:14:14;9.83;;;8.47;;
12871;SDS011;6504;53.766;9.626;2022-09-09T07:16:43;9.23;;;8.37;;
12871;SDS011;6504;53.766;9.626;2022-09-09T07:19:12;8.33;;;7.63;;
12871;SDS011;6504;53.766;9.626;2022-09-09T07:21:45;9.10;;;8.10;;
12871;SDS011;6504;53.766;9.626;2022-09-09T07:24:13;8.50;;;7.70;;
12871;SDS011;6504;53.766;9.626;2022-09-09T07:26:44;11.07;;;8.40;;
12871;SDS011;6504;53.766;9.626;2022-09-09T07:29:12;7.77;;;6.97;;
12871;SDS011;6504;53.766;9.626;2022-09-09T07:31:45;9.03;;;8.13;;
12871;SDS011;6504;53.766;9.626;2022-09-09T07:34:14;8.23;;;7.53;;
12871;SDS011;6504;53.766;9.626;2022-09-09T07:36:47;8.77;;;7.97;;
12871;SDS011;6504;53.766;9.626;2022-09-09T07:39:15;8.00;;;7.23;;
12871;SDS011;6504;53.766;9.626;2022-09-09T07:41:47;8.77;;;7.80;;
12871;SDS011;6504;53.766;9.626;2022-09-09T07:44:17;8.77;;;7.97;;
12871;SDS011;6504;53.766;9.626;2022-09-09T07:46:48;7.70;;;7.00;;
12871;SDS011;6504;53.766;9.626;2022-09-09T07:49:17;7.87;;;7.07;;
12871;SDS011;6504;53.766;9.626;2022-09-09T07:51:55;8.87;;;7.97;;
12871;SDS011;6504;53.766;9.626;2022-09-09T07:54:23;9.40;;;8.50;;
12871;SDS011;6504;53.766;9.626;2022-09-09T07:56:54;9.07;;;8.27;;
12871;SDS011;6504;53.766;9.626;2022-09-09T07:59:22;7.43;;;6.70;;
12871;SDS011;6504;53.766;9.626;2022-09-09T08:01:53;8.03;;;7.33;;
12871;SDS011;6504;53.766;9.626;2022-09-09T08:04:22;7.93;;;7.23;;
12871;SDS011;6504;53.766;9.626;2022-09-09T08:06:52;9.13;;;8.23;;
12871;SDS011;6504;53.766;9.626;2022-09-09T08:09:25;8.77;;;7.90;;
12871;SDS011;6504;53.766;9.626;2022-09-09T08:11:56;10.40;;;9.40;;
12871;SDS011;6504;53.766;9.626;2022-09-09T08:14:26;11.13;;;10.07;;
12871;SDS011;6504;53.766;9.626;2022-09-09T08:16:55;10.57;;;9.57;;
12871;SDS011;6504;53.766;9.626;2022-09-09T08:19:27;10.57;;;9.67;;
12871;SDS011;6504;53.766;9.626;2022-09-09T08:21:56;10.40;;;9.40;;
12871;SDS011;6504;53.766;9.626;2022-09-09T08:24:28;10.63;;;9.70;;
12871;SDS011;6504;53.766;9.626;2022-09-09T08:26:56;10.10;;;8.70;;
12871;SDS011;6504;53.766;9.626;2022-09-09T08:29:24;9.53;;;8.70;;
12871;SDS011;6504;53.766;9.626;2022-09-09T08:31:53;9.50;;;8.60;;
12871;SDS011;6504;53.766;9.626;2022-09-09T08:34:23;9.17;;;8.33;;
12871;SDS011;6504;53.766;9.626;2022-09-09T08:36:53;9.40;;;8.27;;
12871;SDS011;6504;53.766;9.626;2022-09-09T08:39:21;9.47;;;8.53;;
12871;SDS011;6504;53.766;9.626;2022-09-09T08:42:11;7.93;;;7.23;;
12871;SDS011;6504;53.766;9.626;2022-09-09T08:45:09;7.50;;;6.90;;
12871;SDS011;6504;53.766;9.626;2022-09-09T08:47:56;8.27;;;7.50;;
12871;SDS011;6504;53.766;9.626;2022-09-09T08:50:35;7.40;;;6.80;;
12871;SDS011;6504;53.766;9.626;2022-09-09T08:53:05;8.67;;;6.80;;
12871;SDS011;6504;53.766;9.626;2022-09-09T08:55:45;7.30;;;6.60;;
12871;SDS011;6504;53.766;9.626;2022-09-09T08:58:17;7.17;;;6.47;;
12871;SDS011;6504;53.766;9.626;2022-09-09T09:00:54;7.07;;;6.37;;
12871;SDS011;6504;53.766;9.626;2022-09-09T09:03:33;7.93;;;6.50;;
12871;SDS011;6504;53.766;9.626;2022-09-09T09:06:13;6.93;;;5.87;;
12871;SDS011;6504;53.766;9.626;2022-09-09T09:08:56;7.37;;;5.57;;
12871;SDS011;6504;53.766;9.626;2022-09-09T09:11:35;7.33;;;5.47;;
12871;SDS011;6504;53.766;9.626;2022-09-09T09:14:10;6.20;;;5.60;;
12871;SDS011;6504;53.766;9.626;2022-09-09T09:16:47;6.07;;;5.33;;
12871;SDS011;6504;53.766;9.626;2022-09-09T09:19:20;6.17;;;5.13;;
12871;SDS011;6504;53.766;9.626;2022-09-09T09:21:55;6.03;;;4.93;;
12871;SDS011;6504;53.766;9.626;2022-09-09T09:24:28;5.80;;;5.13;;
12871;SDS011;6504;53.766;9.626;2022-09-09T09:27:11;5.23;;;4.40;;
12871;SDS011;6504;53.766;9.626;2022-09-09T09:29:42;6.60;;;4.97;;
12871;SDS011;6504;53.766;9.626;2022-09-09T09:32:33;6.23;;;5.13;;
12871;SDS011;6504;53.766;9.626;2022-09-09T09:35:06;5.77;;;5.17;;
12871;SDS011;6504;53.766;9.626;2022-09-09T09:37:39;6.30;;;4.80;;
12871;SDS011;6504;53.766;9.626;2022-09-09T09:40:31;4.90;;;4.40;;
12871;SDS011;6504;53.766;9.626;2022-09-09T09:43:00;5.30;;;4.07;;
12871;SDS011;6504;53.766;9.626;2022-09-09T09:45:41;4.37;;;3.70;;
12871;SDS011;6504;53.766;9.626;2022-09-09T09:48:26;6.47;;;3.90;;
12871;SDS011;6504;53.766;9.626;2022-09-09T09:50:55;4.67;;;3.50;;
12871;SDS011;6504;53.766;9.626;2022-09-09T09:53:25;3.93;;;3.33;;
12871;SDS011;6504;53.766;9.626;2022-09-09T09:55:56;4.97;;;3.20;;
12871;SDS011;6504;53.766;9.626;2022-09-09T09:58:36;4.73;;;3.50;;
12871;SDS011;6504;53.766;9.626;2022-09-09T10:01:19;5.50;;;3.40;;
12871;SDS011;6504;53.766;9.626;2022-09-09T10:03:54;3.70;;;3.33;;
12871;SDS011;6504;53.766;9.626;2022-09-09T10:06:31;4.57;;;2.80;;
12871;SDS011;6504;53.766;9.626;2022-09-09T10:09:01;3.97;;;3.10;;
12871;SDS011;6504;53.766;9.626;2022-09-09T10:11:40;4.67;;;3.13;;
12871;SDS011;6504;53.766;9.626;2022-09-09T10:14:18;4.90;;;3.03;;
12871;SDS011;6504;53.766;9.626;2022-09-09T10:19:41;4.33;;;2.83;;
12871;SDS011;6504;53.766;9.626;2022-09-09T10:22:18;5.20;;;3.37;;
12871;SDS011;6504;53.766;9.626;2022-09-09T10:25:04;4.43;;;3.30;;
12871;SDS011;6504;53.766;9.626;2022-09-09T10:27:50;4.03;;;3.07;;
12871;SDS011;6504;53.766;9.626;2022-09-09T10:30:35;4.57;;;3.60;;
12871;SDS011;6504;53.766;9.626;2022-09-09T10:33:19;4.90;;;3.50;;
12871;SDS011;6504;53.766;9.626;2022-09-09T10:35:58;4.73;;;3.37;;
12871;SDS011;6504;53.766;9.626;2022-09-09T10:38:39;5.23;;;3.90;;
12871;SDS011;6504;53.766;9.626;2022-09-09T10:41:11;4.97;;;3.40;;
12871;SDS011;6504;53.766;9.626;2022-09-09T10:47:09;4.13;;;2.87;;
12871;SDS011;6504;53.766;9.626;2022-09-09T10:49:52;3.70;;;2.60;;
12871;SDS011;6504;53.766;9.626;2022-09-09T10:52:36;2.63;;;1.80;;
12871;SDS011;6504;53.766;9.626;2022-09-09T10:55:10;3.10;;;2.10;;
12871;SDS011;6504;53.766;9.626;2022-09-09T10:57:45;1.93;;;1.40;;
12871;SDS011;6504;53.766;9.626;2022-09-09T11:00:15;2.37;;;1.40;;
12871;SDS011;6504;53.766;9.626;2022-09-09T11:02:49;2.53;;;1.53;;
12871;SDS011;6504;53.766;9.626;2022-09-09T11:05:24;3.37;;;2.00;;
12871;SDS011;6504;53.766;9.626;2022-09-09T11:07:57;2.63;;;2.43;;
12871;SDS011;6504;53.766;9.626;2022-09-09T11:10:29;2.30;;;1.97;;
12871;SDS011;6504;53.766;9.626;2022-09-09T11:13:09;3.70;;;2.10;;
12871;SDS011;6504;53.766;9.626;2022-09-09T11:15:44;3.73;;;2.10;;
12871;SDS011;6504;53.766;9.626;2022-09-09T11:18:17;3.23;;;2.20;;
12871;SDS011;6504;53.766;9.626;2022-09-09T11:20:57;4.17;;;1.93;;
12871;SDS011;6504;53.766;9.626;2022-09-09T11:23:32;2.53;;;1.70;;
12871;SDS011;6504;53.766;9.626;2022-09-09T11:26:07;6.07;;;1.80;;
12871;SDS011;6504;53.766;9.626;2022-09-09T11:28:49;2.57;;;1.50;;
12871;SDS011;6504;53.766;9.626;2022-09-09T11:31:38;3.23;;;1.60;;
12871;SDS011;6504;53.766;9.626;2022-09-09T11:34:18;2.20;;;1.23;;
12871;SDS011;6504;53.766;9.626;2022-09-09T11:40:22;2.13;;;1.10;;
12871;SDS011;6504;53.766;9.626;2022-09-09T11:43:00;2.27;;;1.20;;
12871;SDS011;6504;53.766;9.626;2022-09-09T11:45:31;2.57;;;1.43;;
12871;SDS011;6504;53.766;9.626;2022-09-09T11:48:02;2.40;;;1.20;;
12871;SDS011;6504;53.766;9.626;2022-09-09T11:50:33;2.03;;;1.30;;
12871;SDS011;6504;53.766;9.626;2022-09-09T11:53:22;2.57;;;1.43;;
12871;SDS011;6504;53.766;9.626;2022-09-09T11:56:02;2.03;;;1.43;;
12871;SDS011;6504;53.766;9.626;2022-09-09T11:58:35;2.70;;;1.50;;
12871;SDS011;6504;53.766;9.626;2022-09-09T12:01:25;1.87;;;1.67;;
12871;SDS011;6504;53.766;9.626;2022-09-09T12:04:12;2.57;;;1.60;;
12871;SDS011;6504;53.766;9.626;2022-09-09T12:07:00;3.07;;;1.73;;
12871;SDS011;6504;53.766;9.626;2022-09-09T12:09:38;2.63;;;1.80;;
12871;SDS011;6504;53.766;9.626;2022-09-09T12:12:23;3.60;;;2.20;;
12871;SDS011;6504;53.766;9.626;2022-09-09T12:15:16;2.60;;;1.90;;
12871;SDS011;6504;53.766;9.626;2022-09-09T12:17:55;3.57;;;2.13;;
12871;SDS011;6504;53.766;9.626;2022-09-09T12:20:33;2.20;;;1.70;;
12871;SDS011;6504;53.766;9.626;2022-09-09T12:23:17;2.27;;;1.97;;
12871;SDS011;6504;53.766;9.626;2022-09-09T12:26:10;3.10;;;2.30;;
12871;SDS011;6504;53.766;9.626;2022-09-09T12:28:58;2.87;;;2.10;;
12871;SDS011;6504;53.766;9.626;2022-09-09T12:31:34;3.03;;;2.00;;
12871;SDS011;6504;53.766;9.626;2022-09-09T12:36:42;2.83;;;1.83;;
12871;SDS011;6504;53.766;9.626;2022-09-09T12:39:19;3.17;;;1.97;;
12871;SDS011;6504;53.766;9.626;2022-09-09T12:41:59;2.87;;;1.93;;
12871;SDS011;6504;53.766;9.626;2022-09-09T12:44:30;3.43;;;1.80;;
12871;SDS011;6504;53.766;9.626;2022-09-09T12:47:00;3.40;;;1.83;;
12871;SDS011;6504;53.766;9.626;2022-09-09T12:49:34;3.37;;;1.70;;
12871;SDS011;6504;53.766;9.626;2022-09-09T12:52:06;3.70;;;1.70;;
12871;SDS011;6504;53.766;9.626;2022-09-09T12:54:43;3.63;;;1.80;;
12871;SDS011;6504;53.766;9.626;2022-09-09T12:57:14;3.90;;;2.00;;
12871;SDS011;6504;53.766;9.626;2022-09-09T12:59:43;4.07;;;1.90;;
12871;SDS011;6504;53.766;9.626;2022-09-09T13:02:19;4.47;;;1.80;;
12871;SDS011;6504;53.766;9.626;2022-09-09T13:04:49;4.33;;;1.97;;
12871;SDS011;6504;53.766;9.626;2022-09-09T13:07:20;3.30;;;1.90;;
12871;SDS011;6504;53.766;9.626;2022-09-09T13:09:48;4.03;;;2.00;;
12871;SDS011;6504;53.766;9.626;2022-09-09T13:12:21;3.63;;;1.70;;
12871;SDS011;6504;53.766;9.626;2022-09-09T13:14:52;2.87;;;1.83;;
12871;SDS011;6504;53.766;9.626;2022-09-09T13:17:23;3.30;;;1.70;;
12871;SDS011;6504;53.766;9.626;2022-09-09T13:19:53;4.17;;;2.17;;
12871;SDS011;6504;53.766;9.626;2022-09-09T13:22:27;2.70;;;2.10;;
12871;SDS011;6504;53.766;9.626;2022-09-09T13:25:03;3.33;;;1.77;;
12871;SDS011;6504;53.766;9.626;2022-09-09T13:27:38;2.83;;;1.90;;
12871;SDS011;6504;53.766;9.626;2022-09-09T13:30:21;3.53;;;2.03;;
12871;SDS011;6504;53.766;9.626;2022-09-09T13:33:18;3.83;;;1.83;;
12871;SDS011;6504;53.766;9.626;2022-09-09T13:35:50;2.70;;;1.40;;
12871;SDS011;6504;53.766;9.626;2022-09-09T13:38:22;2.37;;;1.10;;
12871;SDS011;6504;53.766;9.626;2022-09-09T13:40:57;2.97;;;1.10;;
12871;SDS011;6504;53.766;9.626;2022-09-09T13:43:34;3.77;;;1.30;;
12871;SDS011;6504;53.766;9.626;2022-09-09T13:46:21;4.27;;;1.80;;
12871;SDS011;6504;53.766;9.626;2022-09-09T13:49:00;6.73;;;2.20;;
12871;SDS011;6504;53.766;9.626;2022-09-09T13:51:30;4.93;;;1.90;;
12871;SDS011;6504;53.766;9.626;2022-09-09T13:54:09;3.90;;;1.70;;
12871;SDS011;6504;53.766;9.626;2022-09-09T13:56:38;2.73;;;1.47;;
12871;SDS011;6504;53.766;9.626;2022-09-09T13:59:11;2.47;;;1.47;;
12871;SDS011;6504;53.766;9.626;2022-09-09T14:01:43;4.53;;;1.50;;
12871;SDS011;6504;53.766;9.626;2022-09-09T14:04:11;3.37;;;1.33;;
12871;SDS011;6504;53.766;9.626;2022-09-09T14:06:39;4.13;;;1.93;;
12871;SDS011;6504;53.766;9.626;2022-09-09T14:09:10;5.53;;;1.83;;
12871;SDS011;6504;53.766;9.626;2022-09-09T14:11:40;6.13;;;2.40;;
12871;SDS011;6504;53.766;9.626;2022-09-09T14:14:12;4.37;;;2.20;;
12871;SDS011;6504;53.766;9.626;2022-09-09T14:16:40;4.33;;;2.20;;
12871;SDS011;6504;53.766;9.626;2022-09-09T14:19:09;3.50;;;2.20;;
12871;SDS011;6504;53.766;9.626;2022-09-09T14:21:40;3.80;;;2.13;;
12871;SDS011;6504;53.766;9.626;2022-09-09T14:24:09;5.23;;;2.57;;
12871;SDS011;6504;53.766;9.626;2022-09-09T14:26:38;5.03;;;2.50;;
12871;SDS011;6504;53.766;9.626;2022-09-09T14:29:07;4.53;;;2.40;;
12871;SDS011;6504;53.766;9.626;2022-09-09T14:31:38;4.27;;;2.03;;
12871;SDS011;6504;53.766;9.626;2022-09-09T14:34:06;3.00;;;1.80;;
12871;SDS011;6504;53.766;9.626;2022-09-09T14:36:41;4.37;;;2.27;;
12871;SDS011;6504;53.766;9.626;2022-09-09T14:39:10;2.93;;;1.90;;
12871;SDS011;6504;53.766;9.626;2022-09-09T14:41:38;2.80;;;1.80;;
12871;SDS011;6504;53.766;9.626;2022-09-09T14:44:06;2.87;;;1.73;;
12871;SDS011;6504;53.766;9.626;2022-09-09T14:46:35;4.30;;;1.90;;
12871;SDS011;6504;53.766;9.626;2022-09-09T14:49:07;3.50;;;1.73;;
12871;SDS011;6504;53.766;9.626;2022-09-09T14:51:36;3.87;;;1.83;;
12871;SDS011;6504;53.766;9.626;2022-09-09T14:54:04;2.83;;;2.27;;
12871;SDS011;6504;53.766;9.626;2022-09-09T14:56:35;2.80;;;1.70;;
12871;SDS011;6504;53.766;9.626;2022-09-09T14:59:04;2.87;;;2.13;;
12871;SDS011;6504;53.766;9.626;2022-09-09T15:01:32;4.23;;;1.97;;
12871;SDS011;6504;53.766;9.626;2022-09-09T15:04:01;2.90;;;1.80;;
12871;SDS011;6504;53.766;9.626;2022-09-09T15:06:35;3.07;;;1.30;;
12871;SDS011;6504;53.766;9.626;2022-09-09T15:09:05;1.97;;;1.50;;
12871;SDS011;6504;53.766;9.626;2022-09-09T15:11:35;2.70;;;1.20;;
12871;SDS011;6504;53.766;9.626;2022-09-09T15:14:04;2.83;;;1.40;;
12871;SDS011;6504;53.766;9.626;2022-09-09T15:16:33;2.90;;;1.40;;
12871;SDS011;6504;53.766;9.626;2022-09-09T15:19:02;2.53;;;1.50;;
12871;SDS011;6504;53.766;9.626;2022-09-09T15:21:31;3.70;;;1.80;;
12871;SDS011;6504;53.766;9.626;2022-09-09T15:24:02;2.97;;;1.60;;
12871;SDS011;6504;53.766;9.626;2022-09-09T15:26:30;3.13;;;1.80;;
12871;SDS011;6504;53.766;9.626;2022-09-09T15:28:59;1.87;;;1.50;;
12871;SDS011;6504;53.766;9.626;2022-09-09T15:31:30;2.73;;;1.60;;
12871;SDS011;6504;53.766;9.626;2022-09-09T15:33:59;1.50;;;1.40;;
12871;SDS011;6504;53.766;9.626;2022-09-09T15:36:29;2.40;;;1.70;;
12871;SDS011;6504;53.766;9.626;2022-09-09T15:38:59;2.60;;;1.40;;